createdAt,value
2018-06-12T00:04:59.880Z,28
2018-06-12T00:09:59.509Z,21
2018-06-12T00:14:59.366Z,28
2018-06-12T00:19:59.482Z,28
2018-06-12T00:24:59.391Z,28
2018-06-12T00:29:59.810Z,27
2018-06-12T00:34:59.430Z,26
2018-06-12T00:39:59.325Z,30
2018-06-12T00:44:59.089Z,32
2018-06-12T00:49:59.178Z,32
2018-06-12T00:54:59.215Z,31
2018-06-12T00:59:59.566Z,31
2018-06-12T01:04:59.649Z,32
2018-06-12T01:09:59.231Z,31
2018-06-12T01:15:00.324Z,31
2018-06-12T01:19:59.090Z,30
2018-06-12T01:24:59.234Z,28
2018-06-12T01:29:59.409Z,31
2018-06-12T01:34:59.215Z,24
2018-06-12T01:39:59.140Z,24
2018-06-12T01:44:59.015Z,20
2018-06-12T01:49:59.708Z,25
2018-06-12T01:54:59.086Z,26
2018-06-12T01:59:59.533Z,26
2018-06-12T02:04:58.979Z,26
2018-06-12T02:09:58.963Z,24
2018-06-12T02:14:59.023Z,24
2018-06-12T02:19:58.915Z,23
2018-06-12T02:24:59.207Z,23
2018-06-12T02:29:58.967Z,22
2018-06-12T02:34:58.931Z,22
2018-06-12T02:39:58.873Z,22
2018-06-12T02:44:58.848Z,22
2018-06-12T02:49:58.872Z,22
2018-06-12T02:54:58.764Z,26
2018-06-12T02:59:58.777Z,26
2018-06-12T03:04:58.930Z,20
2018-06-12T03:09:58.870Z,22
2018-06-12T03:14:58.755Z,22
2018-06-12T03:19:58.869Z,20
2018-06-12T03:24:58.879Z,17
2018-06-12T03:29:58.903Z,22
2018-06-12T03:34:58.837Z,24
2018-06-12T03:39:58.910Z,26
2018-06-12T03:44:58.844Z,22
2018-06-12T03:49:58.899Z,22
2018-06-12T03:54:58.668Z,18
2018-06-12T03:59:58.927Z,18
2018-06-12T04:04:58.605Z,21
2018-06-12T04:09:58.691Z,16
2018-06-12T04:14:58.777Z,16
2018-06-12T04:19:58.456Z,23
2018-06-12T04:24:58.803Z,24
2018-06-12T04:29:58.497Z,24
2018-06-12T04:34:58.759Z,24
2018-06-12T04:39:58.773Z,20
2018-06-12T04:44:58.681Z,19
2018-06-12T04:49:58.676Z,26
2018-06-12T04:54:58.769Z,18
2018-06-12T04:59:58.669Z,18
2018-06-12T05:04:58.698Z,22
2018-06-12T05:09:59.114Z,16
2018-06-12T05:14:58.653Z,16
2018-06-12T05:19:58.735Z,15
2018-06-12T05:24:58.712Z,19
2018-06-12T05:29:58.383Z,22
2018-06-12T05:34:58.623Z,22
2018-06-12T05:39:58.632Z,21
2018-06-12T05:44:58.598Z,18
2018-06-12T05:49:58.661Z,18
2018-06-12T05:54:58.561Z,10
2018-06-12T05:59:58.731Z,17
2018-06-12T06:04:58.621Z,17
2018-06-12T06:09:58.582Z,13
2018-06-12T06:14:58.599Z,9
2018-06-12T06:19:58.572Z,9
2018-06-12T06:24:58.735Z,13
2018-06-12T06:29:58.233Z,9
2018-06-12T06:34:58.623Z,10
2018-06-12T06:39:58.595Z,8
2018-06-12T06:44:58.540Z,11
2018-06-12T06:49:58.650Z,10
2018-06-12T06:54:58.634Z,14
2018-06-12T06:59:58.551Z,13
2018-06-12T07:04:58.505Z,17
2018-06-12T07:09:58.468Z,17
2018-06-12T07:14:58.600Z,14
2018-06-12T07:19:58.472Z,14
2018-06-12T07:24:58.486Z,15
2018-06-12T07:29:58.465Z,11
2018-06-12T07:34:58.751Z,9
2018-06-12T07:39:58.256Z,9
2018-06-12T07:44:58.440Z,9
2018-06-12T07:49:58.454Z,18
2018-06-12T07:54:58.465Z,15
2018-06-12T07:59:58.521Z,15
2018-06-12T08:04:58.604Z,11
2018-06-12T08:09:58.607Z,14
2018-06-12T08:14:58.824Z,14
2018-06-12T08:19:58.546Z,13
2018-06-12T08:24:58.509Z,13
2018-06-12T08:29:58.779Z,12
2018-06-12T08:34:58.507Z,11
2018-06-12T08:39:58.612Z,11
2018-06-12T08:44:58.680Z,17
2018-06-12T08:49:58.639Z,17
2018-06-12T08:54:58.551Z,16
2018-06-12T08:59:58.506Z,16
2018-06-12T09:04:58.612Z,16
2018-06-12T09:09:58.992Z,16
2018-06-12T09:16:08.988Z,15
2018-06-12T09:19:58.371Z,15
2018-06-12T09:24:58.359Z,12
2018-06-12T09:29:58.670Z,14
2018-06-12T09:39:13.099Z,21
2018-06-12T09:39:58.229Z,21
2018-06-12T09:45:00.493Z,21
2018-06-12T09:50:00.491Z,21
2018-06-12T09:55:00.438Z,14
2018-06-12T10:15:02.712Z,15
2018-06-12T10:20:00.153Z,11
2018-06-12T10:25:00.460Z,11
2018-06-12T10:30:00.334Z,10
2018-06-12T10:35:00.330Z,10
2018-06-12T10:40:00.264Z,11
2018-06-12T10:45:00.142Z,12
2018-06-12T10:50:00.150Z,12
2018-06-12T10:55:00.230Z,12
2018-06-12T11:00:00.155Z,8
2018-06-12T11:05:00.092Z,8
2018-06-12T11:10:00.303Z,15
2018-06-12T11:15:01.830Z,12
2018-06-12T11:20:00.143Z,18
2018-06-12T11:25:00.090Z,16
2018-06-12T11:30:00.467Z,11
2018-06-12T11:35:00.017Z,12
2018-06-12T11:40:00.284Z,14
2018-06-12T11:45:00.249Z,13
2018-06-12T11:50:00.041Z,13
2018-06-12T11:55:00.136Z,17
2018-06-12T12:00:00.156Z,12
2018-06-12T12:05:00.150Z,13
2018-06-12T12:10:00.073Z,16
2018-06-12T12:15:00.340Z,12
2018-06-12T12:20:00.330Z,12
2018-06-12T12:25:00.259Z,12
2018-06-12T12:29:59.996Z,12
2018-06-12T12:35:00.086Z,9
2018-06-12T12:40:00.159Z,10
2018-06-12T12:45:01.435Z,10
2018-06-12T12:50:00.028Z,8
2018-06-12T12:55:00.177Z,8
2018-06-12T13:00:00.241Z,10
2018-06-12T13:04:59.989Z,11
2018-06-12T13:10:00.051Z,11
2018-06-12T13:15:00.027Z,10
2018-06-12T13:19:59.918Z,14
2018-06-12T13:35:01.155Z,12
2018-06-12T13:40:00.077Z,13
2018-06-12T13:45:00.062Z,13
2018-06-12T13:50:00.173Z,12
2018-06-12T13:55:00.177Z,12
2018-06-12T14:00:00.051Z,9
2018-06-12T14:05:00.166Z,15
2018-06-12T14:10:00.208Z,18
2018-06-12T14:15:00.036Z,9
2018-06-12T14:19:59.896Z,9
2018-06-12T14:24:59.923Z,9
2018-06-12T14:30:00.063Z,9
2018-06-12T14:34:59.986Z,9
2018-06-12T14:39:59.970Z,12
2018-06-12T14:44:59.947Z,15
2018-06-12T14:49:59.890Z,13
2018-06-12T14:55:00.136Z,13
2018-06-12T14:59:59.941Z,12
2018-06-12T15:05:00.053Z,14
2018-06-12T15:09:59.988Z,10
2018-06-12T15:15:00.075Z,13
2018-06-12T15:19:59.838Z,11
2018-06-12T15:24:59.791Z,11
2018-06-12T15:29:59.967Z,11
2018-06-12T15:34:59.884Z,11
2018-06-12T15:39:59.809Z,11
2018-06-12T15:44:59.847Z,11
2018-06-12T15:49:59.690Z,9
2018-06-12T15:54:59.924Z,6
2018-06-12T15:59:59.783Z,7
2018-06-12T16:04:59.672Z,7
2018-06-12T16:09:59.908Z,6
2018-06-12T16:14:59.997Z,6
2018-06-12T16:19:59.806Z,6
2018-06-12T16:24:59.896Z,9
2018-06-12T16:29:59.783Z,4
2018-06-12T16:34:59.924Z,7
2018-06-12T16:39:59.630Z,5
2018-06-12T16:44:59.834Z,7
2018-06-12T16:49:59.878Z,7
2018-06-12T16:54:59.933Z,7
2018-06-12T16:59:59.867Z,7
2018-06-12T17:04:59.747Z,5
2018-06-12T17:09:59.758Z,5
2018-06-12T17:14:59.614Z,5
2018-06-12T17:19:59.845Z,8
2018-06-12T17:24:59.539Z,8
2018-06-12T17:29:59.877Z,6
2018-06-12T17:34:59.545Z,5
2018-06-12T17:39:59.556Z,5
2018-06-12T17:44:59.641Z,5
2018-06-12T17:49:59.744Z,5
2018-06-12T17:54:59.695Z,3
2018-06-12T17:59:59.586Z,6
2018-06-12T18:04:59.472Z,6
2018-06-12T18:09:59.851Z,6
2018-06-12T18:14:59.854Z,5
2018-06-12T18:19:59.673Z,2
2018-06-12T18:24:59.481Z,5
2018-06-12T18:29:59.659Z,5
2018-06-12T18:34:59.566Z,5
2018-06-12T18:39:59.414Z,5
2018-06-12T18:44:59.675Z,3
2018-06-12T18:49:59.578Z,4
2018-06-12T18:54:59.372Z,4
2018-06-12T18:59:59.711Z,5
2018-06-12T19:04:59.653Z,5
2018-06-12T19:09:59.642Z,5
2018-06-12T19:14:59.505Z,3
2018-06-12T19:19:59.388Z,3
2018-06-12T19:24:59.349Z,3
2018-06-12T19:29:59.657Z,5
2018-06-12T19:34:59.679Z,4
2018-06-12T19:39:59.581Z,4
2018-06-12T19:44:59.722Z,4
2018-06-12T19:49:59.467Z,4
2018-06-12T19:54:59.480Z,1
2018-06-12T19:59:59.359Z,1
2018-06-12T20:04:59.381Z,2
2018-06-12T20:09:59.330Z,2
2018-06-12T20:14:59.290Z,2
2018-06-12T20:19:59.348Z,2
2018-06-12T20:24:59.552Z,1
2018-06-12T20:29:59.386Z,2
2018-06-12T20:34:59.638Z,6
2018-06-12T20:39:59.523Z,6
2018-06-12T20:44:59.490Z,1
2018-06-12T20:49:59.422Z,3
2018-06-12T20:54:59.265Z,1
2018-06-12T20:59:59.512Z,2
2018-06-12T21:04:59.584Z,2
2018-06-12T21:09:59.373Z,9
2018-06-12T21:14:59.204Z,3
2018-06-12T21:19:59.577Z,3
2018-06-12T21:24:59.417Z,3
2018-06-12T21:29:59.668Z,6
2018-06-12T21:34:59.484Z,6
2018-06-12T21:39:59.231Z,3
2018-06-12T21:44:59.442Z,3
2018-06-12T21:49:59.479Z,4
2018-06-12T21:54:59.447Z,5
2018-06-12T21:59:59.450Z,8
2018-06-12T22:15:04.260Z,8
2018-06-12T22:20:01.652Z,5
2018-06-12T22:25:01.459Z,5
2018-06-12T22:30:01.641Z,6
2018-06-12T22:35:01.906Z,5
2018-06-12T22:40:01.491Z,5
2018-06-12T22:45:01.519Z,5
2018-06-12T22:50:01.744Z,5
2018-06-12T22:55:01.562Z,3
2018-06-12T23:00:01.526Z,6
2018-06-12T23:05:01.552Z,6
2018-06-12T23:10:01.184Z,3
2018-06-12T23:15:01.571Z,9
2018-06-12T23:20:01.662Z,9
2018-06-12T23:25:01.550Z,5
2018-06-12T23:30:01.912Z,5
2018-06-12T23:35:01.280Z,5
2018-06-12T23:40:01.405Z,11
2018-06-12T23:45:01.256Z,11
2018-06-12T23:50:01.313Z,11
2018-06-12T23:55:01.503Z,4
